Aviation Digital Data Service (ADDS)

Output produced by METARs form (1759 UTC 29 August 2016)
found at http://aviationweather.gov/adds/metars/
 
KARA 291753Z 16004KT 10SM FEW055 FEW070 SCT110 26/22 A3001 RMK AO2 LTG DSNT ALQDS RAB14E50 SLP161 P0004 60004 T02610222 10306 20244 50002